Terminal Aerodrome Forecast
Issued by NWS Tuscon, AZ

Home | Current Version | Previous Version | Text Only | Print | Product List | Glossary On
Versions: 1 2 3 4 5 6 7 8 9 10 11
000
FTUS45 KTWC 121120
TAFDUG
TAF
KDUG 121120Z 1212/1312 VRB04KT P6SM SCT150
     FM121700 09013G22KT P6SM SCT200
     FM130000 08010KT P6SM SCT200
     FM130700 VRB04KT P6SM BKN200=

USA.gov is the U.S. government's official web portal to all federal, state and local government web resources and services.